Time;durP1;ratioP1;P1;durP2;ratioP2;P2;SDS_P1;SDS_P2;PMS_P1;PMS_P2;Temp;Humidity;BMP_temperature;BMP_pressure;BME280_temperature;BME280_humidity;BME280_pressure;Samples;Min_cycle;Max_cycle;Signal;HPM_P1;HPM_P2
2021/10/24 00:00:31;;;;;;;19.47;13.40;;;4.90;99.90;;;;;;5047609;28;20220;-71
2021/10/24 00:03:08;;;;;;;21.33;13.97;;;4.90;99.90;;;;;;5046331;28;20446;-71
2021/10/24 00:06:14;;;;;;;22.67;13.17;;;4.80;99.90;;;;;;5042132;28;20203;-71
2021/10/24 00:09:23;;;;;;;18.23;13.67;;;4.80;99.90;;;;;;5036518;28;20401;-71
2021/10/24 00:12:32;;;;;;;19.77;13.37;;;4.90;99.90;;;;;;5033963;28;20276;-71
2021/10/24 00:15:43;;;;;;;24.43;15.07;;;4.90;99.90;;;;;;5047551;28;20673;-71
2021/10/24 00:18:52;;;;;;;21.10;14.37;;;4.90;99.90;;;;;;5056047;28;20246;-71
2021/10/24 00:22:02;;;;;;;21.67;14.03;;;4.90;99.90;;;;;;5050056;28;20954;-71
2021/10/24 00:25:11;;;;;;;21.30;14.60;;;4.90;99.90;;;;;;5063144;28;20230;-71
2021/10/24 00:28:20;;;;;;;22.47;14.67;;;5.00;99.90;;;;;;5054609;28;20426;-71
2021/10/24 00:31:31;;;;;;;22.87;14.43;;;5.10;99.90;;;;;;5053492;28;20201;-71
2021/10/24 00:34:40;;;;;;;24.20;15.03;;;5.00;99.90;;;;;;5054112;28;20199;-71
2021/10/24 00:37:49;;;;;;;23.10;14.63;;;5.00;99.90;;;;;;5055271;28;20647;-71
2021/10/24 00:40:59;;;;;;;22.17;14.73;;;5.10;99.90;;;;;;5051258;28;20667;-71
2021/10/24 00:44:23;;;;;;;25.23;14.23;;;5.20;99.90;;;;;;5034108;28;20626;-71
2021/10/24 00:47:36;;;;;;;27.47;15.53;;;5.10;99.90;;;;;;5042384;28;20405;-71
2021/10/24 00:50:49;;;;;;;23.27;14.97;;;5.10;99.90;;;;;;5056088;28;20180;-71
2021/10/24 00:53:58;;;;;;;20.97;13.87;;;5.00;99.90;;;;;;5057967;28;20274;-71
2021/10/24 00:57:07;;;;;;;21.10;14.37;;;4.90;99.90;;;;;;5053795;28;20274;-71
2021/10/24 01:00:16;;;;;;;20.20;14.30;;;4.80;99.90;;;;;;5056904;28;20191;-71
2021/10/24 01:03:27;;;;;;;20.93;13.43;;;4.70;99.90;;;;;;5057336;28;20200;-71
2021/10/24 01:06:37;;;;;;;24.70;14.07;;;4.60;99.90;;;;;;5054075;28;20196;-71
2021/10/24 01:09:47;;;;;;;21.37;13.83;;;4.60;99.90;;;;;;5058227;28;20218;-71
2021/10/24 01:12:56;;;;;;;21.00;13.67;;;4.60;99.90;;;;;;5053356;28;20274;-71
2021/10/24 01:16:12;;;;;;;18.70;13.50;;;4.50;99.90;;;;;;5050448;28;20235;-71
2021/10/24 01:19:23;;;;;;;20.43;12.97;;;4.40;99.90;;;;;;5051102;28;20199;-71
2021/10/24 01:22:37;;;;;;;19.93;13.63;;;4.40;99.90;;;;;;5055029;28;20728;-71
2021/10/24 01:25:46;;;;;;;21.60;14.03;;;4.30;99.90;;;;;;5062782;28;20339;-71
2021/10/24 01:28:56;;;;;;;27.17;14.60;;;4.20;99.90;;;;;;5051960;28;20192;-71
2021/10/24 01:32:05;;;;;;;18.07;12.73;;;4.10;99.90;;;;;;5053617;28;20235;-72
2021/10/24 01:35:15;;;;;;;24.33;14.40;;;4.10;99.90;;;;;;5056284;28;20191;-71
2021/10/24 01:38:27;;;;;;;23.20;14.10;;;4.00;99.90;;;;;;5059548;28;20196;-71
2021/10/24 01:41:36;;;;;;;19.70;12.40;;;4.00;99.90;;;;;;5053864;28;20192;-71
2021/10/24 01:44:49;;;;;;;24.33;13.70;;;3.90;99.90;;;;;;5053130;28;20664;-71
2021/10/24 01:47:59;;;;;;;18.80;13.00;;;3.90;99.90;;;;;;5057825;28;20456;-71
2021/10/24 01:51:08;;;;;;;23.07;13.00;;;3.90;99.90;;;;;;5052148;28;20819;-71
2021/10/24 01:54:19;;;;;;;18.67;12.57;;;3.80;99.90;;;;;;5042303;28;20256;-71
2021/10/24 01:57:28;;;;;;;19.47;12.83;;;3.80;99.90;;;;;;5037894;28;20254;-71
2021/10/24 02:00:38;;;;;;;18.83;12.93;;;3.80;99.90;;;;;;5055265;28;20295;-71
2021/10/24 02:03:47;;;;;;;21.83;13.67;;;3.70;99.90;;;;;;5058175;28;20274;-71
2021/10/24 02:06:56;;;;;;;22.53;14.03;;;3.70;99.90;;;;;;5064288;28;20822;-71
2021/10/24 02:10:09;;;;;;;22.77;14.27;;;3.90;99.90;;;;;;5058768;28;20737;-71
2021/10/24 02:13:18;;;;;;;23.63;14.73;;;3.90;99.90;;;;;;5050846;28;20209;-71
2021/10/24 02:16:27;;;;;;;25.13;15.33;;;4.00;99.90;;;;;;5048530;28;20288;-71
2021/10/24 02:19:37;;;;;;;27.37;16.60;;;4.00;99.90;;;;;;5052074;28;20191;-71
2021/10/24 02:22:46;;;;;;;33.43;17.73;;;4.10;99.90;;;;;;5058937;28;20209;-71
2021/10/24 02:25:56;;;;;;;31.17;18.03;;;4.20;99.90;;;;;;5046110;28;20748;-71
2021/10/24 02:29:05;;;;;;;33.13;18.00;;;4.40;99.90;;;;;;5046111;28;20683;-71
2021/10/24 02:32:15;;;;;;;31.80;17.77;;;4.50;99.90;;;;;;5041895;28;20560;-71
2021/10/24 02:35:25;;;;;;;33.97;17.50;;;4.60;99.90;;;;;;5050350;28;20283;-71
2021/10/24 02:38:35;;;;;;;32.87;17.63;;;4.70;99.90;;;;;;5061233;28;20526;-71
2021/10/24 02:41:45;;;;;;;30.70;18.30;;;4.70;99.90;;;;;;5064450;28;20196;-71
2021/10/24 02:44:58;;;;;;;29.50;17.53;;;4.80;99.90;;;;;;5058331;28;20204;-71
2021/10/24 02:48:08;;;;;;;29.80;17.23;;;4.70;99.90;;;;;;5057706;28;20235;-72
2021/10/24 02:51:17;;;;;;;27.60;15.40;;;4.60;99.90;;;;;;5060424;28;20245;-71
2021/10/24 02:54:27;;;;;;;29.57;16.23;;;4.50;99.90;;;;;;5062995;28;20274;-71
2021/10/24 02:57:38;;;;;;;27.37;16.57;;;4.40;99.90;;;;;;5055728;28;20220;-71
2021/10/24 03:00:47;;;;;;;29.57;16.53;;;4.40;99.90;;;;;;5059867;28;20437;-71
2021/10/24 03:03:56;;;;;;;32.57;16.97;;;4.50;99.90;;;;;;5054482;28;20779;-71
2021/10/24 03:07:06;;;;;;;25.60;15.67;;;4.40;99.90;;;;;;5054664;28;20688;-71
2021/10/24 03:10:15;;;;;;;27.43;15.83;;;4.30;99.90;;;;;;5062685;28;20430;-71
2021/10/24 03:13:26;;;;;;;28.03;16.27;;;4.20;99.90;;;;;;5039441;28;20203;-71
2021/10/24 03:16:35;;;;;;;27.13;15.33;;;4.20;99.90;;;;;;5050908;28;20289;-71
2021/10/24 03:19:44;;;;;;;28.63;15.27;;;4.20;99.90;;;;;;5044386;28;20268;-71
2021/10/24 03:22:53;;;;;;;26.60;14.93;;;4.10;99.90;;;;;;5061538;28;20205;-71
2021/10/24 03:26:03;;;;;;;30.83;15.83;;;4.10;99.90;;;;;;5058931;28;20303;-71
2021/10/24 03:29:13;;;;;;;30.17;15.27;;;4.10;99.90;;;;;;5057383;28;20847;-71
2021/10/24 03:32:22;;;;;;;28.70;14.93;;;4.00;99.90;;;;;;5054848;28;20200;-71
2021/10/24 03:35:31;;;;;;;25.30;14.40;;;4.00;99.90;;;;;;5040616;28;20289;-71
2021/10/24 03:38:42;;;;;;;25.30;15.03;;;3.80;99.90;;;;;;5049296;28;20300;-71
2021/10/24 03:41:51;;;;;;;25.60;14.43;;;3.80;99.90;;;;;;5059203;28;20668;-71
2021/10/24 03:45:02;;;;;;;26.37;15.43;;;3.70;99.90;;;;;;5057398;28;20278;-71
2021/10/24 03:48:11;;;;;;;29.67;15.37;;;3.70;99.90;;;;;;5062943;28;20262;-71
2021/10/24 03:51:20;;;;;;;28.50;14.57;;;3.70;99.90;;;;;;5056171;28;20683;-71
2021/10/24 03:54:29;;;;;;;30.00;15.23;;;3.70;99.90;;;;;;5053847;28;20248;-71
2021/10/24 03:57:38;;;;;;;25.37;14.27;;;3.60;99.90;;;;;;5053739;28;20753;-72
2021/10/24 04:00:49;;;;;;;27.27;14.07;;;3.60;99.90;;;;;;5049841;28;20192;-71
2021/10/24 04:03:58;;;;;;;27.63;14.70;;;;;;;;;;5051345;28;20204;-71
2021/10/24 04:07:07;;;;;;;23.80;14.37;;;3.50;99.90;;;;;;5053402;28;20199;-71
2021/10/24 04:10:17;;;;;;;26.07;15.07;;;3.40;99.90;;;;;;5052142;28;20274;-71
2021/10/24 04:13:27;;;;;;;24.37;13.90;;;3.30;99.90;;;;;;5044702;28;20340;-71
2021/10/24 04:16:37;;;;;;;28.53;14.53;;;3.20;99.90;;;;;;5042752;28;20201;-72
2021/10/24 04:19:47;;;;;;;28.77;15.60;;;3.20;99.90;;;;;;5056216;28;20756;-71
2021/10/24 04:22:56;;;;;;;28.60;14.70;;;3.20;99.90;;;;;;5056916;28;20389;-71
2021/10/24 04:26:05;;;;;;;29.20;14.57;;;3.20;99.90;;;;;;5046187;28;20220;-71
2021/10/24 04:29:14;;;;;;;29.63;15.97;;;3.20;99.90;;;;;;5035729;28;20203;-72
2021/10/24 04:32:25;;;;;;;38.07;16.23;;;3.20;99.90;;;;;;5036978;28;20254;-72
2021/10/24 04:35:34;;;;;;;31.43;15.90;;;3.20;99.90;;;;;;5058136;28;20451;-71
2021/10/24 04:38:43;;;;;;;26.17;15.57;;;3.20;99.90;;;;;;5055010;28;20224;-71
2021/10/24 04:41:53;;;;;;;25.67;14.33;;;3.10;99.90;;;;;;5058413;28;20210;-72
2021/10/24 04:45:02;;;;;;;31.17;15.13;;;3.10;99.90;;;;;;5056893;28;20859;-71
2021/10/24 04:48:13;;;;;;;26.80;14.43;;;3.00;99.90;;;;;;5051265;28;20197;-71
2021/10/24 04:51:22;;;;;;;24.87;14.30;;;3.00;99.90;;;;;;5042230;28;20233;-71
2021/10/24 04:54:31;;;;;;;21.17;13.40;;;2.90;99.90;;;;;;5046552;28;20387;-71
2021/10/24 04:57:41;;;;;;;36.53;16.40;;;2.80;99.90;;;;;;5055600;28;20216;-71
2021/10/24 05:00:51;;;;;;;29.50;15.10;;;2.80;99.90;;;;;;5055462;28;20526;-71
2021/10/24 05:04:06;;;;;;;31.10;16.23;;;2.80;99.90;;;;;;5053441;28;20189;-71
2021/10/24 05:07:15;;;;;;;32.93;16.57;;;2.80;99.90;;;;;;5044128;28;20239;-71
2021/10/24 05:10:24;;;;;;;33.60;16.53;;;2.80;99.90;;;;;;5039513;28;20225;-71
2021/10/24 05:13:33;;;;;;;32.53;16.03;;;2.90;99.90;;;;;;5056301;28;20439;-71
2021/10/24 05:16:45;;;;;;;33.53;16.47;;;2.90;99.90;;;;;;5040987;28;20287;-71
2021/10/24 05:19:56;;;;;;;29.20;15.13;;;2.90;99.90;;;;;;5054659;28;20635;-72
2021/10/24 05:23:06;;;;;;;27.40;15.13;;;2.90;99.90;;;;;;5055578;28;20215;-71
2021/10/24 05:26:35;;;;;;;25.57;14.13;;;2.90;99.90;;;;;;5070037;28;20680;-71
2021/10/24 05:29:44;;;;;;;24.97;13.67;;;2.80;99.90;;;;;;5070315;28;20218;-71
2021/10/24 05:32:53;;;;;;;24.83;14.30;;;2.70;99.90;;;;;;5064889;28;20278;-71
2021/10/24 05:36:05;;;;;;;34.23;15.87;;;;;;;;;;5072678;28;20191;-71
2021/10/24 05:39:14;;;;;;;27.03;14.53;;;2.30;99.90;;;;;;5072579;28;20252;-71
2021/10/24 05:42:23;;;;;;;30.07;14.87;;;2.60;99.90;;;;;;5069398;28;20579;-71
2021/10/24 05:45:32;;;;;;;34.60;16.27;;;2.70;99.90;;;;;;5076162;28;20222;-71
2021/10/24 05:48:41;;;;;;;31.60;16.63;;;2.80;99.90;;;;;;5059189;28;20235;-71
2021/10/24 05:51:53;;;;;;;35.00;17.10;;;3.00;99.90;;;;;;5067442;28;20211;-71
2021/10/24 05:55:03;;;;;;;35.43;17.03;;;3.20;99.90;;;;;;5071608;28;20195;-71
2021/10/24 05:58:14;;;;;;;34.17;17.13;;;3.40;99.90;;;;;;5071918;28;20223;-71
2021/10/24 06:01:23;;;;;;;40.63;17.97;;;3.50;99.90;;;;;;5070101;28;20471;-71
2021/10/24 06:04:32;;;;;;;31.30;16.27;;;3.60;99.90;;;;;;5069779;28;20199;-71
2021/10/24 06:07:44;;;;;;;36.80;17.40;;;;;;;;;;5072509;28;20393;-71
2021/10/24 06:10:56;;;;;;;38.93;17.33;;;3.90;99.90;;;;;;5070937;28;20199;-71
2021/10/24 06:14:05;;;;;;;34.97;17.00;;;3.80;99.90;;;;;;5071665;28;20207;-71
2021/10/24 06:17:14;;;;;;;35.20;16.37;;;3.80;99.90;;;;;;5072861;28;20278;-71
2021/10/24 06:20:24;;;;;;;31.53;16.83;;;3.80;99.90;;;;;;5067257;28;20453;-72
2021/10/24 06:23:35;;;;;;;35.60;16.63;;;3.80;99.90;;;;;;5074352;28;20898;-72
2021/10/24 06:26:45;;;;;;;37.00;17.20;;;3.90;99.90;;;;;;5069775;28;20191;-71
2021/10/24 06:29:54;;;;;;;29.37;16.27;;;3.90;99.90;;;;;;5071766;28;20274;-72
2021/10/24 06:33:04;;;;;;;35.23;17.77;;;4.00;99.90;;;;;;5067435;28;20624;-72
2021/10/24 06:36:13;;;;;;;34.17;16.67;;;4.10;99.90;;;;;;5068147;28;20260;-71
2021/10/24 06:39:23;;;;;;;36.97;18.00;;;4.20;99.90;;;;;;5072656;28;20211;-71
2021/10/24 06:42:32;;;;;;;36.73;16.50;;;4.20;99.90;;;;;;5067298;28;20224;-72
2021/10/24 06:45:42;;;;;;;29.57;16.40;;;4.20;99.90;;;;;;5069966;28;20191;-71
2021/10/24 06:48:50;;;;;;;33.27;17.00;;;4.20;99.90;;;;;;5072266;28;20215;-71
2021/10/24 06:52:04;;;;;;;36.93;16.60;;;4.20;99.90;;;;;;5076964;28;20733;-71
2021/10/24 06:55:16;;;;;;;30.77;15.77;;;4.20;99.90;;;;;;5070806;28;20683;-72
2021/10/24 06:58:25;;;;;;;30.80;15.47;;;4.20;99.90;;;;;;5068053;28;20520;-71
2021/10/24 07:01:34;;;;;;;33.67;15.63;;;4.30;99.90;;;;;;5074405;28;20379;-72
2021/10/24 07:04:43;;;;;;;34.47;15.53;;;4.40;99.90;;;;;;5073590;28;20224;-71
2021/10/24 07:07:52;;;;;;;37.67;16.20;;;4.40;99.90;;;;;;5063513;28;20548;-71
2021/10/24 07:11:03;;;;;;;24.50;14.93;;;4.40;99.90;;;;;;5071496;28;20598;-71
2021/10/24 07:14:11;;;;;;;25.83;15.20;;;4.60;99.90;;;;;;5074033;28;20210;-71
2021/10/24 07:17:20;;;;;;;29.70;15.23;;;4.60;99.90;;;;;;5073394;28;20270;-70
2021/10/24 07:20:29;;;;;;;28.23;13.70;;;4.80;99.90;;;;;;5068455;28;20728;-71
2021/10/24 07:23:39;;;;;;;21.53;13.50;;;4.90;99.90;;;;;;5075265;28;20715;-71
2021/10/24 07:26:49;;;;;;;21.97;13.17;;;5.00;99.90;;;;;;5072258;28;20244;-71
2021/10/24 07:29:58;;;;;;;23.90;13.43;;;5.10;99.90;;;;;;5073876;28;20191;-71
2021/10/24 07:33:07;;;;;;;19.07;11.67;;;5.30;99.90;;;;;;5072754;28;20195;-72
2021/10/24 07:36:19;;;;;;;20.57;12.90;;;5.40;99.90;;;;;;5072229;28;20254;-71
2021/10/24 07:39:28;;;;;;;18.83;11.70;;;5.50;99.90;;;;;;5068771;28;20295;-71
2021/10/24 07:42:40;;;;;;;17.03;10.40;;;5.60;99.90;;;;;;5067988;28;20504;-71
2021/10/24 07:45:50;;;;;;;22.73;11.37;;;5.80;99.90;;;;;;5071004;28;20224;-71
2021/10/24 07:48:59;;;;;;;17.47;10.60;;;5.90;99.90;;;;;;5062014;28;20204;-72
2021/10/24 07:52:08;;;;;;;18.17;10.63;;;6.10;99.90;;;;;;5068564;28;20506;-72
2021/10/24 07:55:17;;;;;;;17.20;10.00;;;6.30;99.90;;;;;;5069650;28;20295;-72
2021/10/24 07:58:28;;;;;;;15.00;8.90;;;6.40;99.90;;;;;;5074691;28;20288;-71
2021/10/24 08:01:37;;;;;;;16.90;9.47;;;6.50;99.90;;;;;;5066781;28;20232;-71
2021/10/24 08:04:47;;;;;;;13.83;8.53;;;6.70;99.90;;;;;;5071600;28;20245;-72
2021/10/24 08:07:59;;;;;;;18.53;8.43;;;6.90;99.90;;;;;;5068848;28;20227;-71
2021/10/24 08:11:08;;;;;;;10.77;6.87;;;7.00;99.90;;;;;;5069239;28;20232;-72
2021/10/24 08:14:19;;;;;;;13.10;7.73;;;7.20;99.90;;;;;;5071207;28;20196;-71
2021/10/24 08:17:28;;;;;;;10.20;6.80;;;7.40;99.90;;;;;;5069037;28;20351;-71
2021/10/24 08:20:37;;;;;;;12.80;7.57;;;7.50;99.90;;;;;;5067787;28;20503;-72
2021/10/24 08:23:46;;;;;;;10.37;6.90;;;7.70;99.90;;;;;;5066743;28;20287;-72
2021/10/24 08:26:56;;;;;;;8.90;6.43;;;7.80;99.90;;;;;;5066206;28;20293;-71
2021/10/24 08:30:09;;;;;;;12.43;8.00;;;7.90;99.90;;;;;;5071304;28;20215;-71
2021/10/24 08:33:18;;;;;;;18.50;8.90;;;8.00;99.90;;;;;;5063953;28;20693;-72
2021/10/24 08:36:29;;;;;;;14.80;7.90;;;8.10;99.90;;;;;;5067565;28;20192;-71
2021/10/24 08:39:38;;;;;;;22.57;12.30;;;8.30;99.90;;;;;;5068626;28;20314;-71
2021/10/24 08:42:52;;;;;;;23.27;12.37;;;8.40;99.90;;;;;;5069639;28;20264;-71
2021/10/24 08:46:05;;;;;;;19.80;11.10;;;8.60;99.90;;;;;;5066827;28;20601;-72
2021/10/24 08:49:14;;;;;;;13.87;7.93;;;8.70;99.90;;;;;;5074565;28;20179;-71
2021/10/24 08:52:25;;;;;;;13.53;8.00;;;8.90;99.90;;;;;;5068580;28;20257;-72
2021/10/24 08:55:36;;;;;;;34.23;13.57;;;9.10;99.90;;;;;;5072113;28;20357;-72
2021/10/24 08:58:46;;;;;;;14.80;8.33;;;9.20;99.90;;;;;;5073182;28;20358;-71
2021/10/24 09:01:58;;;;;;;8.87;6.60;;;9.50;99.90;;;;;;5072380;28;20191;-71
2021/10/24 09:05:08;;;;;;;16.60;10.40;;;9.60;99.90;;;;;;5066057;28;20202;-71
2021/10/24 09:08:23;;;;;;;13.63;7.40;;;9.70;99.90;;;;;;5070194;28;20622;-71
2021/10/24 09:11:32;;;;;;;11.23;7.70;;;9.90;99.90;;;;;;5073682;28;20425;-72
2021/10/24 09:14:44;;;;;;;9.90;6.80;;;10.00;99.90;;;;;;5072693;28;20195;-72
2021/10/24 09:18:07;;;;;;;11.60;8.07;;;10.20;99.90;;;;;;5070857;28;20264;-72
2021/10/24 09:21:32;;;;;;;13.13;6.93;;;10.50;99.90;;;;;;5071218;28;20195;-72
2021/10/24 09:25:14;;;;;;;16.50;13.33;;;10.60;99.90;;;;;;5071299;28;20195;-72
2021/10/24 09:28:26;;;;;;;16.03;7.70;;;10.70;99.90;;;;;;5074363;28;20690;-72
2021/10/24 09:31:37;;;;;;;14.00;7.60;;;10.70;99.90;;;;;;5071503;28;20266;-71
2021/10/24 09:35:01;;;;;;;12.03;7.33;;;10.90;99.90;;;;;;5069657;28;20252;-72
2021/10/24 09:38:15;;;;;;;16.63;8.63;;;10.90;99.90;;;;;;5071658;28;20491;-72
2021/10/24 09:41:31;;;;;;;14.40;7.93;;;11.00;99.90;;;;;;5073198;28;20682;-71
2021/10/24 09:45:04;;;;;;;16.93;7.70;;;11.10;99.90;;;;;;5070395;28;20484;-71
2021/10/24 09:48:16;;;;;;;13.90;7.27;;;11.20;99.90;;;;;;5048129;28;20592;-72
2021/10/24 09:51:34;;;;;;;15.07;8.00;;;11.20;99.90;;;;;;5064952;28;20734;-72
2021/10/24 09:54:49;;;;;;;15.27;7.50;;;11.50;99.90;;;;;;5071285;28;20219;-72
2021/10/24 09:57:58;;;;;;;14.60;7.37;;;11.70;99.90;;;;;;5072405;28;20275;-72
2021/10/24 10:01:09;;;;;;;13.27;6.80;;;11.80;99.90;;;;;;5071821;28;20602;-72
2021/10/24 10:04:18;;;;;;;14.30;7.17;;;11.80;99.90;;;;;;5069694;28;20423;-71
2021/10/24 10:07:29;;;;;;;12.43;6.70;;;11.80;99.90;;;;;;5066599;28;20287;-72
2021/10/24 10:10:40;;;;;;;12.50;6.77;;;12.00;99.90;;;;;;5063316;28;20191;-72
2021/10/24 10:13:56;;;;;;;13.40;6.93;;;12.10;99.90;;;;;;5071532;28;20294;-72
2021/10/24 10:17:13;;;;;;;15.30;7.53;;;12.30;99.90;;;;;;5057703;28;20203;-72
2021/10/24 10:20:25;;;;;;;13.33;6.77;;;12.50;99.90;;;;;;5065772;28;20579;-67
2021/10/24 10:23:41;;;;;;;12.17;7.57;;;12.50;99.90;;;;;;5073428;28;20194;-69
2021/10/24 10:26:54;;;;;;;15.20;8.03;;;12.60;99.90;;;;;;5071955;28;20204;-69
2021/10/24 10:30:06;;;;;;;14.83;8.10;;;12.80;99.90;;;;;;5066694;28;20195;-71
2021/10/24 10:33:36;;;;;;;15.03;8.27;;;13.00;99.90;;;;;;5075328;28;20238;-72
2021/10/24 10:36:57;;;;;;;15.33;8.67;;;13.00;99.90;;;;;;5073686;28;20214;-70
2021/10/24 10:40:14;;;;;;;16.27;9.30;;;13.00;99.90;;;;;;5066548;28;20421;-70
2021/10/24 10:43:24;;;;;;;19.33;9.83;;;13.20;99.90;;;;;;5076494;28;20946;-73
2021/10/24 10:46:35;;;;;;;30.97;20.20;;;13.50;99.90;;;;;;5075692;28;20546;-69
2021/10/24 10:49:44;;;;;;;21.60;9.27;;;13.80;99.90;;;;;;5073226;28;20188;-71
2021/10/24 10:52:54;;;;;;;18.50;11.17;;;14.00;99.90;;;;;;5073248;28;20195;-72
2021/10/24 10:56:21;;;;;;;20.97;11.43;;;14.20;99.90;;;;;;5072615;28;20287;-73
2021/10/24 10:59:37;;;;;;;25.33;13.00;;;14.20;99.90;;;;;;5075722;28;20795;-76
2021/10/24 11:02:50;;;;;;;28.50;14.73;;;14.30;99.90;;;;;;5067356;28;20284;-73
2021/10/24 11:05:59;;;;;;;29.27;14.50;;;14.20;99.90;;;;;;5073040;28;20477;-70
2021/10/24 11:09:10;;;;;;;24.93;12.90;;;14.20;99.90;;;;;;5075317;28;20187;-76
2021/10/24 11:12:36;;;;;;;21.73;12.30;;;14.40;99.90;;;;;;5077603;28;20733;-74
2021/10/24 11:15:46;;;;;;;18.10;9.00;;;14.70;99.90;;;;;;5069991;28;20200;-77
2021/10/24 11:18:55;;;;;;;16.77;9.10;;;14.80;99.90;;;;;;5071639;28;20562;-80
2021/10/24 11:22:06;;;;;;;15.40;8.27;;;15.10;99.90;;;;;;5072519;28;20200;-73
2021/10/24 11:25:25;;;;;;;13.70;6.17;;;15.40;99.90;;;;;;5071791;28;20199;-68
2021/10/24 11:28:37;;;;;;;11.77;7.50;;;15.60;99.90;;;;;;5075178;28;20192;-74
2021/10/24 11:31:49;;;;;;;9.47;5.20;;;15.70;99.90;;;;;;5075721;28;20183;-78
2021/10/24 11:35:00;;;;;;;10.87;6.50;;;15.40;99.90;;;;;;5071657;28;20195;-75
2021/10/24 11:38:14;;;;;;;8.30;6.00;;;15.50;99.90;;;;;;5071147;28;20198;-75
2021/10/24 11:41:25;;;;;;;11.10;5.97;;;15.50;99.90;;;;;;5067455;28;20801;-75
2021/10/24 11:44:36;;;;;;;9.10;5.13;;;15.40;99.90;;;;;;5075264;28;20594;-75
2021/10/24 11:47:57;;;;;;;9.10;5.80;;;15.60;99.90;;;;;;5071297;28;20184;-75
2021/10/24 11:51:08;;;;;;;8.03;5.47;;;15.90;99.90;;;;;;5070215;28;20184;-77
2021/10/24 11:54:17;;;;;;;6.40;5.03;;;15.90;99.90;;;;;;5066807;28;20746;-75
2021/10/24 11:57:34;;;;;;;5.27;4.87;;;15.90;99.90;;;;;;5069620;28;20410;-75
2021/10/24 12:00:50;;;;;;;4.63;3.57;;;15.70;99.90;;;;;;5069411;28;20325;-76
2021/10/24 12:04:01;;;;;;;4.10;3.80;;;16.10;99.90;;;;;;5069814;28;20702;-79
2021/10/24 12:07:11;;;;;;;4.20;3.80;;;16.10;99.90;;;;;;5062543;28;20292;-74
2021/10/24 12:10:21;;;;;;;4.80;4.40;;;15.90;99.90;;;;;;5070176;28;20194;-76
2021/10/24 12:13:32;;;;;;;5.43;4.90;;;16.00;99.90;;;;;;5074879;28;20234;-77
2021/10/24 12:16:44;;;;;;;10.73;4.53;;;16.10;99.90;;;;;;5073915;28;20728;-79
2021/10/24 12:20:09;;;;;;;5.83;3.97;;;16.20;99.90;;;;;;5072651;28;20197;-75
2021/10/24 12:23:18;;;;;;;4.20;3.83;;;16.40;99.90;;;;;;5069409;28;20938;-73
2021/10/24 12:26:34;;;;;;;5.90;4.43;;;16.30;99.90;;;;;;5073680;28;20419;-75
2021/10/24 12:29:56;;;;;;;4.50;4.10;;;16.30;99.90;;;;;;5071473;28;20190;-75
2021/10/24 12:33:11;;;;;;;5.27;4.20;;;16.10;99.90;;;;;;5070559;28;21631;-64
2021/10/24 12:36:32;;;;;;;7.00;6.27;;;15.90;99.90;;;;;;5067723;28;20202;-64
2021/10/24 12:39:44;;;;;;;5.93;5.00;;;15.70;99.90;;;;;;5067505;28;20211;-65
2021/10/24 12:43:13;;;;;;;4.20;3.80;;;15.70;99.90;;;;;;5065709;28;20200;-65
2021/10/24 12:46:30;;;;;;;6.63;4.20;;;15.90;99.90;;;;;;5070034;28;20194;-66
2021/10/24 12:49:40;;;;;;;4.80;4.30;;;15.70;99.90;;;;;;5068704;28;20240;-66
2021/10/24 12:52:59;;;;;;;7.50;4.70;;;15.70;99.90;;;;;;5067061;28;20279;-65
2021/10/24 12:56:09;;;;;;;7.33;4.70;;;15.50;99.90;;;;;;5060257;28;20262;-69
2021/10/24 12:59:18;;;;;;;4.63;4.20;;;15.20;99.90;;;;;;5070803;28;20286;-67
2021/10/24 13:02:27;;;;;;;5.50;4.63;;;15.20;99.90;;;;;;5065386;28;20203;-64
2021/10/24 13:05:38;;;;;;;5.70;4.47;;;14.90;99.90;;;;;;5069524;28;20215;-59
2021/10/24 13:08:49;;;;;;;6.47;5.50;;;15.00;99.90;;;;;;5068697;28;20198;-63
2021/10/24 13:11:58;;;;;;;5.63;5.10;;;14.90;99.90;;;;;;5072548;28;20582;-64
2021/10/24 13:15:08;;;;;;;5.20;4.47;;;14.90;99.90;;;;;;5064615;28;20906;-63
2021/10/24 13:18:18;;;;;;;7.10;5.77;;;15.00;99.90;;;;;;5069085;28;20317;-63
2021/10/24 13:24:56;;;;;;;7.90;5.60;;;15.10;99.90;;;;;;5061667;28;20407;-63
2021/10/24 13:28:05;;;;;;;14.00;10.60;;;14.90;99.90;;;;;;5070304;28;20203;-63
2021/10/24 13:31:14;;;;;;;9.20;4.73;;;14.90;99.90;;;;;;5068865;28;20923;-65
2021/10/24 13:34:23;;;;;;;7.20;4.67;;;14.90;99.90;;;;;;5069300;28;20200;-62
2021/10/24 13:37:33;;;;;;;5.97;4.40;;;14.90;99.90;;;;;;5072979;28;20229;-60
2021/10/24 13:40:43;;;;;;;4.60;4.03;;;14.90;99.90;;;;;;5067534;28;20218;-62
2021/10/24 13:43:52;;;;;;;12.67;8.80;;;14.90;99.90;;;;;;5067514;28;20744;-59
2021/10/24 13:47:01;;;;;;;6.40;4.37;;;14.90;99.90;;;;;;5072022;28;20197;-63
2021/10/24 13:50:11;;;;;;;7.97;5.03;;;15.00;99.90;;;;;;5064117;28;20191;-63
2021/10/24 13:53:23;;;;;;;9.23;5.20;;;14.90;99.90;;;;;;5068129;28;20264;-63
2021/10/24 13:56:33;;;;;;;8.80;4.53;;;15.10;99.90;;;;;;5064140;28;20235;-63
2021/10/24 13:59:42;;;;;;;4.80;4.30;;;15.10;99.90;;;;;;5058312;28;20280;-64
2021/10/24 14:02:54;;;;;;;5.43;4.37;;;15.20;99.90;;;;;;5059680;28;20222;-63
2021/10/24 14:06:04;;;;;;;5.13;3.90;;;15.20;99.90;;;;;;5062470;28;20204;-63
2021/10/24 14:09:14;;;;;;;4.87;3.60;;;15.30;99.90;;;;;;5064876;28;20287;-63
2021/10/24 14:12:23;;;;;;;4.77;3.70;;;15.20;99.90;;;;;;5066653;28;20318;-62
2021/10/24 14:15:33;;;;;;;5.53;3.67;;;15.20;99.90;;;;;;5068802;28;20191;-63
2021/10/24 14:18:42;;;;;;;5.07;3.50;;;15.30;99.90;;;;;;5067080;28;20606;-62
2021/10/24 14:21:51;;;;;;;4.30;3.80;;;15.30;99.90;;;;;;5068173;28;20275;-63
2021/10/24 14:25:01;;;;;;;5.37;3.87;;;15.30;99.90;;;;;;5067506;28;20432;-62
2021/10/24 14:28:10;;;;;;;6.73;4.13;;;15.30;99.90;;;;;;5065273;28;20601;-62
2021/10/24 14:31:19;;;;;;;5.67;4.17;;;15.30;99.90;;;;;;5065702;28;20282;-63
2021/10/24 14:34:29;;;;;;;6.80;4.80;;;15.30;99.90;;;;;;5062010;28;20730;-63
2021/10/24 14:37:55;;;;;;;6.37;4.40;;;15.40;99.90;;;;;;5069179;28;20184;-62
2021/10/24 14:41:06;;;;;;;6.73;4.93;;;15.40;99.90;;;;;;5072486;28;20232;-63
2021/10/24 14:44:15;;;;;;;8.43;5.20;;;15.20;99.90;;;;;;5070770;28;20614;-63
2021/10/24 14:47:26;;;;;;;7.20;5.47;;;15.10;99.90;;;;;;5065024;28;20204;-63
2021/10/24 14:50:36;;;;;;;8.53;5.33;;;15.20;99.90;;;;;;5068720;28;20546;-63
2021/10/24 14:53:46;;;;;;;9.17;5.50;;;15.00;99.90;;;;;;5070708;28;20195;-63
2021/10/24 14:56:56;;;;;;;9.17;5.43;;;14.90;99.90;;;;;;5069908;28;20234;-63
2021/10/24 15:00:07;;;;;;;8.13;5.43;;;14.90;99.90;;;;;;5070825;28;20210;-62
2021/10/24 15:03:16;;;;;;;9.63;5.83;;;14.80;99.90;;;;;;5066151;28;20454;-64
2021/10/24 15:06:25;;;;;;;10.67;5.83;;;14.60;99.90;;;;;;5066637;28;20297;-63
2021/10/24 15:09:36;;;;;;;10.17;5.90;;;14.60;99.90;;;;;;5061221;28;20230;-63
2021/10/24 15:12:47;;;;;;;8.90;5.97;;;14.50;99.90;;;;;;5075423;28;20769;-63
2021/10/24 15:15:59;;;;;;;15.97;6.73;;;14.40;99.90;;;;;;5073948;28;20798;-63
2021/10/24 15:22:51;;;;;;;11.93;6.87;;;14.30;99.90;;;;;;5065148;28;20215;-63
2021/10/24 15:26:00;;;;;;;6.03;4.53;;;14.30;99.90;;;;;;5074513;28;20357;-63
2021/10/24 15:29:11;;;;;;;5.70;3.43;;;14.10;99.90;;;;;;5076331;28;20537;-62
2021/10/24 15:32:21;;;;;;;3.60;3.30;;;14.00;99.90;;;;;;5070976;28;20605;-63
2021/10/24 15:35:30;;;;;;;3.80;3.27;;;13.90;99.90;;;;;;5069241;28;20191;-62
2021/10/24 15:38:39;;;;;;;6.97;4.13;;;13.80;99.90;;;;;;5068649;28;20203;-62
2021/10/24 15:41:48;;;;;;;3.33;3.10;;;13.80;99.90;;;;;;5071598;28;20270;-63
2021/10/24 15:44:59;;;;;;;5.40;3.20;;;13.70;99.90;;;;;;5063736;28;20366;-63
2021/10/24 15:48:15;;;;;;;4.73;3.90;;;13.50;99.90;;;;;;5061552;28;20683;-63
2021/10/24 15:51:24;;;;;;;7.53;4.23;;;13.50;99.90;;;;;;5062449;28;20564;-63
2021/10/24 15:54:33;;;;;;;5.43;3.80;;;13.40;99.90;;;;;;5063726;28;20294;-61
2021/10/24 15:57:44;;;;;;;6.80;4.27;;;13.30;99.90;;;;;;5048498;28;20228;-63
2021/10/24 16:00:55;;;;;;;5.50;3.63;;;13.20;99.90;;;;;;5051471;28;20200;-63
2021/10/24 16:04:04;;;;;;;4.03;3.73;;;13.10;99.90;;;;;;5047748;28;20404;-63
2021/10/24 16:07:14;;;;;;;4.40;4.00;;;13.00;99.90;;;;;;5045163;28;21906;-62
2021/10/24 16:10:23;;;;;;;4.40;3.90;;;12.90;99.90;;;;;;5044834;28;20230;-62
2021/10/24 16:13:33;;;;;;;4.07;3.63;;;12.80;99.90;;;;;;5009251;28;20697;-63
2021/10/24 16:16:45;;;;;;;4.17;3.70;;;12.70;99.90;;;;;;5011454;28;20204;-62
2021/10/24 16:19:56;;;;;;;3.70;3.40;;;12.60;99.90;;;;;;5010680;28;20485;-62
2021/10/24 16:23:05;;;;;;;3.50;3.20;;;12.50;99.90;;;;;;5010165;28;20209;-62
2021/10/24 16:26:14;;;;;;;4.30;3.93;;;12.40;99.90;;;;;;5010142;28;20456;-63
2021/10/24 16:29:24;;;;;;;4.80;3.70;;;12.30;99.90;;;;;;5002532;28;20198;-62
2021/10/24 16:32:35;;;;;;;4.13;3.73;;;12.20;99.90;;;;;;5001777;28;20230;-62